Terminal Aerodrome Forecast
Issued by NWS Amarillo, TX

Home | Current Version | Previous Version | Text Only | Print | Product List | Glossary On
Versions: 1 2 3 4 5 6 7 8 9 10 11 12 13 14 15 16 17 18 19 20 21
000
FTUS44 KAMA 010300 AAB
TAFAMA
TAF AMD
KAMA 010332Z 0104/0124 06008KT P6SM VCTS SCT020CB BKN110
      TEMPO 0104/0106 VRB30G40KT 2SM +TSRA BR OVC020CB
     FM010800 15008KT 6SM BR VCSH OVC040
      TEMPO 0108/0112 3SM -SHRA BR OVC025
     FM011400 16014KT P6SM SCT040 BKN080=

USA.gov is the U.S. government's official web portal to all federal, state and local government web resources and services.